Badger Spring Valley, Nevada Weather observations

Data are for 10 minute period ending at time listed.
 Day   Time   Solar   Ave.   Ave.  Ave.  Vector  Max.   Baro.   Total    
  of    of     Rad.   Air    Rel.  Wind   Wind   Wind  Press.  Precip.   
Year   Day            Temp.  Hum.  Speed  Dir.   Gust                    
2014   (PST)  Kw/m2    F      %     mph   deg.    mph    mb.     in.     
-------------------------------------------------------------------------
 110    3:20   0.00   56.6    34    5.4   255     9.1   501.0    0.00 
 110    3:30   0.00   57.0    34    4.7   260     7.8   501.0    0.00 
 110    3:40   0.00   57.5    33    5.8   250     9.9   501.0    0.00 
 110    3:50   0.00   57.9    33    4.7   252     9.9   501.0    0.00 
 110    4:00   0.00   58.2    33    6.4   261    12.6   501.0    0.00 
 110    4:10   0.00   58.7    32    8.8   262    13.7   500.8    0.00 
 110    4:20   0.00   59.0    32    9.1   251    14.2   500.8    0.00 
 110    4:30   0.00   58.7    32    8.0   247    12.4   500.7    0.00 
 110    4:40   0.00   58.3    33    5.7   243    10.6   500.8    0.00 
 110    4:50   0.00   57.8    33    4.6   235    11.0   500.8    0.00 
 110    5:00   0.00   57.1    34    2.1   228     5.9   500.8    0.00 
 110    5:10   0.01   56.9    34    3.1   223     7.3   500.8    0.00 
 110    5:20   0.03   56.9    34    1.7   140     4.8   500.8    0.00 
 110    5:30   0.07   56.3    35    3.0   115     5.3   500.8    0.00 
 110    5:40   0.10   57.2    35    3.2   112     6.3   501.1    0.00 
 110    5:50   0.12   57.9    34    2.2   144     4.2   501.2    0.00 
 110    6:00   0.14   58.5    34    2.5   126     5.1   501.2    0.00 
 110    6:10   0.18   59.8    33    1.0   146     3.5   501.2    0.00 
 110    6:20   0.20   61.3    31    1.4   172     9.3   501.3    0.00 
 110    6:30   0.21   61.5    31    7.6   214    11.5   501.3    0.00 
 110    6:40   0.27   62.1    30    8.0   226    15.6   501.3    0.00 
 110    6:50   0.31   62.9    30    5.5   216     9.4   501.3    0.00 
 110    7:00   0.33   63.7    29    5.4   198    10.7   501.3    0.00 
 110    7:10   0.36   63.9    29    6.7   199     9.4   501.3    0.00 
 110    7:20   0.43   64.1    29    6.9   211    16.0   501.3    0.00 
 110    7:30   0.46   64.5    28    6.5   233    11.7   501.3    0.00 
 110    7:40   0.44   64.4    28    7.3   229    12.9   501.3    0.00 
 110    7:50   0.54   65.0    28    6.6   234    11.5   501.4    0.00 
 110    8:00   0.59   65.3    28    5.5   229     9.4   501.5    0.00 
 110    8:10   0.59   65.6    26    6.8   282    12.8   501.5    0.00 
 110    8:20   0.65   65.9    26    8.3   268    17.4   501.5    0.00 
 110    8:30   0.70   66.5    26    7.1   245    12.5   501.5    0.00 
 110    8:40   0.70   67.4    25    7.1   242    13.0   501.5    0.00 
 110    8:50   0.76   67.3    25    6.8   241    11.9   501.5    0.00 
 110    9:00   0.78   68.2    24    5.9   214    10.8   501.5    0.00 
 110    9:10   0.83   69.0    23    4.1   225     9.5   501.5    0.00 
 110    9:20   0.87   69.1    24    8.2    70    16.4   501.5    0.00 
 110    9:30   0.91   68.4    24    8.8    82    13.5   501.6    0.00 
 110    9:40   0.92   69.1    23    5.9    80    11.8   501.6    0.00 
 110    9:50   0.93   69.1    23    8.1    77    14.6   501.6    0.00 
 110   10:00   0.97   68.4    24    5.2    64    13.4   501.6    0.00 
 110   10:10   0.95   69.7    23    7.0    74    14.0   501.6    0.00 
 110   10:20   1.02   69.7    23    7.8    76    14.0   501.6    0.00 
 110   10:30   1.01   70.1    22    7.1    87    11.7   501.6    0.00 
 110   10:40   1.05   70.4    22    4.9    59    13.5   501.7    0.00 
 110   10:50   1.06   71.6    21    7.1   116    12.6   501.8    0.00 
 110   11:00   1.10   71.6    21    5.2   102    13.8   501.8    0.00 
 110   11:10   1.10   71.4    21    4.9   256    12.6   501.8    0.00 
 110   11:20   1.11   73.1    20    7.5   256    13.3   501.8    0.00 
 110   11:30   1.12   73.3    19   10.8   260    17.1   501.8    0.00 
 110   11:40   1.11   72.8    20   10.5   264    17.4   501.7    0.00 
 110   11:50   1.10   73.4    20    8.1   282    15.1   501.6    0.00 
 110   12:00   1.12   73.2    19    9.1   262    16.3   501.7    0.00 
 110   12:10   1.15   73.8    18   10.2   222    16.5   501.8    0.00 
 110   12:20   1.18   73.8    17    7.2   217    15.6   501.8    0.00 
 110   12:30   1.14   74.7    16    7.7   221    19.1   501.8    0.00 
 110   12:40   1.15   74.9    16   14.1   219    23.2   501.8    0.00 
 110   12:50   1.14   74.5    17   11.9   229    23.0   501.8    0.00 
 110   13:00   1.12   74.9    17   10.1   229    21.0   501.8    0.00 
 110   13:10   0.71   74.6    17   11.7   216    19.1   501.8    0.00 
 110   13:20   0.78   72.6    18    7.5   265    15.1   501.8    0.00 
 110   13:30   1.02   74.1    16    4.7   272    12.6   501.8    0.00 
 110   13:40   1.08   75.7    15    8.1   195    19.1   501.8    0.00 
 110   13:50   1.03   75.4    14   11.2   207    18.3   501.9    0.00 
 110   14:00   0.99   75.2    14   10.8   225    20.9   501.9    0.00 
 110   14:10   0.90   75.1    15    8.4   257    17.1   502.0    0.00 
 110   14:20   0.93   75.6    15   11.4   209    20.8   502.0    0.00 
 110   14:30   0.37   74.0    16    5.9   210    11.5   502.0    0.00 
 110   14:40   0.23   72.6    16    7.9   218    16.7   501.8    0.00 
 110   14:50   0.36   72.2    16    8.8   217    14.1   501.8    0.00 
 110   15:00   0.22   72.6    16    7.0   176    12.2   501.6    0.00 
 110   15:10   0.22   72.2    17    9.5   175    20.0   501.6    0.00 
 110   15:20   0.26   71.9    16    7.4   216    15.1   501.6    0.00 
 110   15:30   0.41   73.1    15    7.5   228    14.9   501.6    0.00 
 110   15:40   0.64   74.0    15    5.3   258    12.1   501.6    0.00 
 110   15:50   0.35   74.0    15    9.3   246    16.1   501.6    0.00 
 110   16:00   0.32   72.3    16    6.0   269    10.6   501.6    0.00 
 110   16:10   0.50   74.2    15    9.4   210    17.2   501.6    0.00 
 110   16:20   0.45   74.1    16   11.7   209    17.5   501.6    0.00 
 110   16:30   0.40   74.1    15   12.8   203    20.0   501.6    0.00 
 110   16:40   0.37   73.4    16   11.8   223    18.1   501.6    0.00 
 110   16:50   0.34   73.4    16    9.7   215    16.1   501.6    0.00 
 110   17:00   0.30   73.2    16   11.6   183    18.4   501.6    0.00 
 110   17:10   0.24   73.1    16   10.4   210    17.0   501.6    0.00 
 110   17:20   0.19   72.4    16    9.1   208    14.9   501.6    0.00 
 110   17:30   0.15   72.0    16    7.7   200    14.8   501.6    0.00 
 110   17:40   0.11   71.0    16   12.2   204    20.4   501.5    0.00 
 110   17:50   0.07   70.2    17    8.4   218    15.3   501.5    0.00 
 110   18:00   0.04   69.4    17    9.5   201    16.9   501.5    0.00 
 110   18:10   0.02   68.7    18    9.8   206    15.1   501.5    0.00 
 110   18:20   0.01   68.2    18    8.3   206    11.8   501.4    0.00 
 110   18:30   0.00   67.6    18    7.1   208    10.9   501.3    0.00 
 110   18:40   0.00   67.1    18    7.5   212    13.6   501.3    0.00 
 110   18:50   0.00   66.8    18    7.1   214    11.5   501.3    0.00 
 110   19:00   0.00   66.1    18    7.2   217    11.5   501.3    0.00 
 110   19:10   0.00   65.9    18    6.7   215    10.6   501.3    0.00 
 110   19:20   0.00   65.6    17    7.3   222    10.8   501.3    0.00 
 110   19:30   0.00   65.8    16    6.5   233    10.7   501.3    0.00 
 110   19:40   0.00   65.6    16    7.1   246     9.6   501.3    0.00 
 110   19:50   0.00   65.9    16    7.4   259    11.5   501.3    0.00 
 110   20:00   0.00   65.6    16    7.1   255    10.8   501.3    0.00 
 110   20:10   0.00   63.7    18    7.2   268    10.1   501.3    0.00 
 110   20:20   0.00   62.8    19    8.1   262    10.8   501.3    0.00 
 110   20:30   0.00   64.8    18    7.8   254    10.6   501.3    0.00 
 110   20:40   0.00   65.1    18    6.8   249     9.0   501.3    0.00 
 110   20:50   0.00   64.9    19    7.3   249    12.5   501.3    0.00 
 110   21:00   0.00   64.8    20    7.5   255     8.9   501.3    0.00 
 110   21:10   0.00   64.4    21    7.7   262    10.2   501.3    0.00 
 110   21:20   0.00   64.5    21    7.9   256    12.6   501.3    0.00 
 110   21:30   0.00   64.4    22    7.6   257     9.9   501.3    0.00 
 110   21:40   0.00   64.3    22    7.1   248    11.6   501.3    0.00 
 110   21:50   0.00   64.0    23    6.4   252    11.2   501.3    0.00 
 110   22:00   0.00   63.7    23    6.1   257     9.0   501.3    0.00 
 110   22:10   0.00   63.6    23    7.2   259    10.4   501.3    0.00 
 110   22:20   0.00   62.1    24    5.9   279     8.8   501.3    0.00 
 110   22:30   0.00   58.8    27    5.4   283     6.6   501.3    0.00 
 110   22:40   0.00   58.0    28    7.5   283    10.6   501.1    0.00 
 110   22:50   0.00   60.7    26    7.5   281    10.8   501.0    0.00 
 110   23:00   0.00   58.4    28    8.7   301    10.4   501.1    0.00 
 110   23:10   0.00   58.0    29    9.3   296    10.5   501.2    0.00 
 110   23:20   0.00   57.8    29    9.3   297    11.3   501.2    0.00 
 110   23:30   0.00   57.7    29    9.1   298    11.2   501.2    0.00 
 110   23:40   0.00   57.8    29    9.1   295    10.7   501.2    0.00 
 110   23:50   0.00   57.9    29    8.8   294    10.1   501.2    0.00 
 111    0:00   0.00   57.7    29    9.8   294    11.7   501.2    0.00 
 111    0:10   0.00   58.0    29   10.7   297    12.0   501.2    0.00 
 111    0:20   0.00   57.7    29   10.1   296    11.4   501.2    0.00 
 111    0:30   0.00   57.4    30   10.3   294    11.5   501.1    0.00 
 111    0:40   0.00   57.1    30   10.8   294    11.9   501.2    0.00 
 111    0:50   0.00   57.3    30   10.6   294    12.0   501.2    0.00 
 111    1:00   0.00   57.3    30   11.3   296    12.4   501.2    0.00 
 111    1:10   0.00   57.2    30   11.1   297    12.2   501.2    0.00 
 111    1:20   0.00   57.4    29   11.4   297    12.5   501.2    0.00 
 111    1:30   0.00   57.5    29   11.1   297    12.5   501.2    0.00 
 111    1:40   0.00   57.3    29   10.9   295    12.2   501.2    0.00 
 111    1:50   0.00   57.1    29    9.7   295    11.1   501.2    0.00 
 111    2:00   0.00   56.8    30    8.3   298    10.7   501.2    0.00 
 111    2:10   0.00   56.4    30    7.3   303     8.6   501.2    0.00 
 111    2:20   0.00   56.4    30    6.3   306     7.5   501.2    0.00 
 111    2:30   0.00   57.0    29    4.9   302     6.6   501.2    0.00 
 111    2:40   0.00   58.3    28    4.4   312     6.6   501.2    0.00 
 111    2:50   0.00   56.6    29    5.2   308     6.7   501.2    0.00 
 111    3:00   0.00   56.0    30    5.0   307     6.4   501.2    0.00 
 111    3:10   0.00   56.0    30    6.5   303     7.6   501.4    0.00 

Return to Badger Spring Valley graphs page.


Western Regional Climate Center,wrcc@dri.edu